• Join FlightAware (Why Join?)
  • Login
  • US Flag 
05:42PM EDT


 

Airport Tracker/Info


-or-


 

Live Flight TrackerFlight Track Log ✈ N272AY ✈ 11-Apr-2013 ✈ EDDF / FRA - KPHL

Flight Track Log - Related Links

Times and Time Zones

All times are in EDT time to prevent confusion due to time zone crossing. See the N272AY flight status page for this flight to view local times or setup timezone preferences in your user account.

Time Position Orientation Groundspeed Altitude Reporting Facility
EDT Latitude Longitude Course Direction KTS MPH feet Rate Location/Type
05:35AM 53.8191 -1.7184 288° West 460 529 34,500  Level FlightAware UK
05:36AM 53.8311 -1.7793 288° West 460 529 34,500  Level FlightAware UK
05:36AM 53.8421 -1.8410 287° West 460 529 34,500 -3,600 Level FlightAware UK
05:38AM 53.8850 -2.1085 285° West  Level Estimated
05:44AM 49.9800 8.5280 285° West 147 169 2,800  Level FlightAware
05:45AM 54.0860 -3.4258 285° West  Level Estimated
05:45AM 49.9670 8.5290 177° South 167 192 3,000  Level FlightAware
05:45AM 49.9450 8.5300 178° South 181 208 3,500 1,320 Climbing FlightAware
05:46AM 49.9290 8.5310 178° South 182 209 4,100 1,560 Climbing FlightAware
05:46AM 49.9030 8.5330 177° South 206 237 4,700 1,560 Climbing FlightAware
05:47AM 49.8550 8.5240 187° South 221 254 6,100 1,800 Climbing FlightAware
05:47AM 49.8260 8.5070 201° Southwest 240 276 7,000 2,160 Climbing FlightAware
05:48AM 49.8010 8.4940 199° South 243 280 7,900 2,160 Climbing FlightAware
05:48AM 49.7670 8.4680 206° Southwest 249 287 9,000 2,280 Climbing FlightAware
05:48AM 49.7590 8.4360 249° West 242 278 9,800 1,680 Climbing FlightAware
05:50AM 49.7540 8.3170 266° West 284 327 11,400 1,440 Climbing FlightAware
05:50AM 49.7500 8.2180 266° West 313 360 12,500 1,800 Climbing FlightAware
05:51AM 49.7470 8.1400 267° West 317 365 13,800 1,800 Climbing FlightAware
05:52AM 49.7430 8.0450 266° West 335 386 14,800 1,800 Climbing FlightAware
05:52AM 49.7390 7.9370 267° West 340 391 16,400 1,920 Climbing FlightAware
05:53AM 49.7340 7.8290 266° West 348 400 17,700 1,620 Climbing FlightAware
05:54AM 49.7300 7.7400 266° West 356 410 18,600 1,560 Climbing FlightAware
05:55AM 49.7230 7.5730 266° West 365 420 20,300 1,560 Climbing FlightAware
05:56AM 49.7160 7.4380 265° West 372 428 21,600 1,440 Climbing FlightAware
05:57AM 49.7090 7.2790 266° West 378 435 23,000 1,380 Climbing FlightAware
05:57AM 49.7040 7.1850 265° West 381 438 23,800 1,200 Climbing FlightAware
05:58AM 49.6990 7.0780 266° West 383 441 24,700 1,260 Climbing FlightAware
05:59AM 49.6920 6.9470 265° West 382 440 25,800 1,200 Climbing FlightAware
05:59AM 49.6870 6.8390 266° West 390 449 26,400 1,080 Climbing FlightAware
06:00AM 49.6820 6.7470 265° West 389 448 27,200 1,860 Climbing FlightAware
06:01AM 49.6710 6.5660 265° West 364 419 29,500 1,680 Climbing FlightAware
06:02AM 49.6650 6.4690 265° West 362 417 30,200 1,200 Climbing FlightAware
06:03AM 49.6550 6.2960 265° West 347 399 31,800 1,200 Climbing FlightAware
06:04AM 49.6500 6.2170 264° West 345 397 32,400 960 Climbing FlightAware
06:04AM 49.6420 6.0900 264° West 340 391 33,200 780 Climbing FlightAware
06:05AM 49.6350 5.9830 264° West 348 400 33,500 660 Climbing FlightAware
06:06AM 49.6270 5.8600 264° West 348 400 34,200 780 Climbing FlightAware
06:06AM 49.6210 5.7590 265° West 349 402 34,700 600 Climbing FlightAware
06:07AM 49.6160 5.6810 264° West 348 400 35,000 180 Climbing FlightAware
06:08AM 49.6080 5.5660 264° West 355 409 35,000  Level FlightAware
06:08AM 49.6010 5.4600 264° West 357 411 35,000 60 Level FlightAware
06:09AM 49.5910 5.3650 261° West 359 413 35,100 360 Climbing FlightAware
06:10AM 49.5900 5.2650 269° West 358 412 35,500 540 Climbing FlightAware
06:11AM 49.6240 5.1310 291° West 362 417 36,000 300 Climbing FlightAware
06:11AM 49.6450 5.0490 292° West 365 420 36,000  Level FlightAware
06:12AM 49.6740 4.9370 292° West 374 430 36,000  Level FlightAware
06:13AM 49.7050 4.8170 292° West 374 430 36,000  Level FlightAware
06:13AM 49.7290 4.7200 291° West 375 432 36,000  Level FlightAware
06:14AM 49.7590 4.6040 292° West 375 432 36,000  Level FlightAware
06:15AM 49.7780 4.5290 291° West 377 434 36,000  Level FlightAware
06:16AM 49.8470 4.2500 292° West 389 448 36,000  Level FlightAware
06:17AM 49.8586 4.2228 292° West  Level Estimated
06:17AM 49.8730 4.1460 291° West 390 449 36,000  Level FlightAware
06:18AM 49.9000 4.0370 291° West 388 447 36,000  Level FlightAware
06:19AM 49.9270 3.9270 291° West 387 445 36,000  Level FlightAware
06:19AM 49.9530 3.8220 291° West 386 444 36,000  Level FlightAware
06:20AM 49.9830 3.6990 291° West 386 444 36,000  Level FlightAware
06:21AM 50.0080 3.5940 290° West 387 445 36,000  Level FlightAware
06:21AM 50.0330 3.4910 291° West 385 443 36,000  Level FlightAware
06:22AM 50.0600 3.3790 291° West 387 445 36,000  Level FlightAware
06:23AM 50.0860 3.2730 291° West 387 445 36,000  Level FlightAware
06:23AM 50.1160 3.1550 292° West 386 444 36,000  Level FlightAware
06:24AM 50.1420 3.0500 291° West 385 443 36,000  Level FlightAware
06:25AM 50.1740 2.9530 297° West 394 453 36,000  Level FlightAware
06:26AM 50.2130 2.8490 300° West 398 458 36,000  Level FlightAware
06:26AM 50.2520 2.7440 300° West 401 461 36,000  Level FlightAware
06:27AM 50.2870 2.6500 300° West 402 463 36,000  Level FlightAware
06:28AM 50.3400 2.5340 306° West 412 474 36,000  Level FlightAware
06:28AM 50.3820 2.4430 306° West 404 465 36,000  Level FlightAware
06:29AM 50.4220 2.3230 298° West 402 463 36,000  Level FlightAware
06:30AM 50.4550 2.2230 297° West 404 465 36,000  Level FlightAware
06:30AM 50.4940 2.1020 297° West 407 468 36,000  Level FlightAware
06:31AM 50.5260 2.0030 297° West 409 471 36,000  Level FlightAware
06:32AM 50.5650 1.8810 297° West 411 473 36,000  Level FlightAware
06:32AM 50.5950 1.7840 296° West 412 474 36,000  Level FlightAware
06:33AM 50.6320 1.6680 297° West 414 476 36,000  Level FlightAware
06:34AM 50.6720 1.5410 296° West 415 478 36,000  Level FlightAware
06:35AM 50.7020 1.4470 297° West 415 478 36,000  Level FlightAware
06:35AM 50.7350 1.3420 296° West 416 479 36,000  Level FlightAware
06:36AM 50.7780 1.2030 296° West 419 482 36,000  Level FlightAware
06:37AM 50.8090 1.1030 296° West 419 482 36,000  Level FlightAware
06:37AM 50.8490 0.9720 296° West 420 483 36,000  Level FlightAware
06:38AM 50.8770 0.8800 296° West 419 482 36,000  Level FlightAware
06:39AM 50.9190 0.7430 296° West 421 484 36,000  Level FlightAware
06:39AM 50.9269 0.7168 296° West 423 487 36,000  Level FlightAware ADS-B
06:39AM 50.9469 0.6522 296° West 424 488 36,000  Level FlightAware ADS-B
06:40AM 50.9778 0.5654 300° West 427 491 36,000  Level FlightAware ADS-B
06:40AM 51.0077 0.4836 300° West 427 491 36,000  Level FlightAware ADS-B
06:41AM 51.0410 0.3920 300° West 427 491 36,000  Level FlightAware
06:41AM 51.0521 0.3623 301° West 427 491 36,000  Level FlightAware ADS-B
06:42AM 51.0854 0.2721 300° West 426 490 36,000  Level FlightAware ADS-B
06:42AM 51.1163 0.1886 301° West 427 491 36,000  Level FlightAware ADS-B
06:43AM 51.1464 0.1067 300° West 427 491 36,000  Level FlightAware ADS-B
06:43AM 51.1763 0.0247 300° West 429 494 36,000  Level FlightAware ADS-B
06:43AM 51.1903 -0.0148 300° West 426 490 36,000  Level FlightAware ADS-B
06:44AM 51.1980 -0.0403 296° West 423 487 36,000  Level FlightAware ADS-B
06:44AM 51.2212 -0.1304 292° West 422 486 36,000  Level FlightAware ADS-B
06:45AM 51.2441 -0.2204 292° West 424 488 36,000  Level FlightAware ADS-B
06:45AM 51.2666 -0.3089 292° West 424 488 36,000  Level FlightAware ADS-B
06:46AM 51.2886 -0.3964 292° West 425 489 36,000  Level FlightAware ADS-B
06:46AM 51.3109 -0.4855 292° West 426 490 36,000  Level FlightAware ADS-B
06:47AM 51.3351 -0.5819 292° West 427 491 36,000  Level FlightAware ADS-B
06:47AM 51.3570 -0.6699 292° West 427 491 36,000  Level FlightAware ADS-B
06:48AM 51.3800 -0.7624 292° West 427 491 36,000  Level FlightAware ADS-B
06:48AM 51.4028 -0.8549 292° West 427 491 36,000  Level FlightAware ADS-B
06:49AM 51.4251 -0.9457 292° West 427 491 36,000  Level FlightAware ADS-B
06:49AM 51.4477 -1.0377 292° West 431 496 36,000  Level FlightAware ADS-B
06:50AM 51.4700 -1.1293 291° West 433 498 36,000  Level FlightAware ADS-B
06:50AM 51.4836 -1.1857 291° West 433 498 36,000  Level FlightAware ADS-B
06:51AM 51.4986 -1.2645 287° West 429 494 36,000  Level FlightAware ADS-B
06:51AM 51.5127 -1.3595 283° West 429 494 36,000  Level FlightAware ADS-B
06:52AM 51.5264 -1.4524 283° West 429 494 36,000  Level FlightAware ADS-B
06:52AM 51.5404 -1.5471 283° West 428 493 36,000  Level FlightAware ADS-B
06:53AM 51.5543 -1.6418 283° West 428 493 36,000  Level FlightAware ADS-B
06:53AM 51.5686 -1.7410 283° West 429 494 36,000  Level FlightAware ADS-B
06:54AM 51.5821 -1.8342 283° West 430 495 36,000  Level FlightAware ADS-B
06:54AM 51.5956 -1.9293 283° West 431 496 36,000  Level FlightAware ADS-B
06:55AM 51.6091 -2.0240 283° West 432 497 36,000  Level FlightAware ADS-B
06:55AM 51.6225 -2.1184 283° West 433 498 36,000  Level FlightAware ADS-B
06:56AM 51.6367 -2.2193 283° West 434 499 36,000  Level FlightAware ADS-B
06:56AM 51.6519 -2.3283 283° West 437 503 36,000  Level FlightAware ADS-B
06:57AM 51.6652 -2.4243 283° West 438 504 36,000  Level FlightAware ADS-B
06:57AM 51.6785 -2.5205 283° West 436 502 36,000  Level FlightAware ADS-B
06:58AM 51.6915 -2.6164 282° West 436 502 36,000  Level FlightAware ADS-B
06:58AM 51.7047 -2.7130 282° West 436 502 36,000  Level FlightAware ADS-B
06:59AM 51.7179 -2.8112 282° West 436 502 36,000  Level FlightAware ADS-B
06:59AM 51.7308 -2.9073 282° West 435 501 36,000  Level FlightAware ADS-B
07:00AM 51.7435 -3.0029 282° West 436 502 36,000  Level FlightAware ADS-B
07:00AM 51.7577 -3.1102 282° West 437 503 36,000  Level FlightAware ADS-B
07:01AM 51.7707 -3.2085 282° West 439 505 36,000  Level FlightAware ADS-B
07:02AM 51.7867 -3.3318 282° West 437 503 36,000  Level FlightAware ADS-B
07:02AM 51.8024 -3.4528 282° West 436 502 36,000  Level FlightAware ADS-B
07:03AM 51.8148 -3.5504 282° West 437 503 36,000  Level FlightAware ADS-B
07:03AM 51.8310 -3.6800 281° West 439 505 36,000  Level FlightAware
07:04AM 51.8460 -3.7990 282° West 439 505 36,000  Level FlightAware
07:05AM 51.8640 -3.9400 282° West 439 505 36,000  Level FlightAware
07:05AM 51.8810 -4.0790 281° West 440 506 36,000  Level FlightAware
07:06AM 51.8980 -4.2190 281° West 440 506 36,000  Level FlightAware
07:07AM 51.9140 -4.3480 281° West 442 509 36,000  Level FlightAware
07:08AM 51.9290 -4.4790 281° West 444 511 36,000  Level FlightAware
07:08AM 51.9470 -4.6260 281° West 444 511 36,000  Level FlightAware
07:09AM 51.9620 -4.7580 280° West 445 512 36,000  Level FlightAware
07:10AM 51.9800 -4.9070 281° West 447 514 36,000  Level FlightAware
07:10AM 52.0050 -5.0360 288° West 454 522 36,000  Level FlightAware
07:11AM 52.0390 -5.1510 296° West 459 528 36,000  Level FlightAware
07:12AM 52.0910 -5.2920 301° West 456 525 36,000  Level FlightAware
07:12AM 52.1230 -5.4160 293° West 454 522 36,000  Level FlightAware
07:13AM 52.1600 -5.5640 292° West 456 525 36,000  Level FlightAware
07:14AM 52.1910 -5.6890 292° West 458 527 36,000  Level FlightAware
07:15AM 52.2210 -5.8100 292° West 457 526 36,000  Level FlightAware
07:15AM 52.2550 -5.9510 292° West 459 528 36,000  Level FlightAware
07:16AM 52.2870 -6.0840 292° West 461 531 36,000  Level FlightAware
07:17AM 52.3180 -6.2170 291° West 460 529 36,000  Level FlightAware
07:17AM 52.3530 -6.3630 291° West 461 531 36,000  Level FlightAware
07:18AM 52.3830 -6.4920 291° West 461 531 36,000  Level FlightAware
07:19AM 52.4130 -6.6200 291° West 459 528 36,000  Level FlightAware
07:19AM 52.4490 -6.7750 291° West 457 526 36,000  Level FlightAware
07:20AM 52.4780 -6.9000 291° West 456 525 36,000  Level FlightAware
07:21AM 52.5120 -7.0490 291° West 456 525 36,000  Level FlightAware
07:22AM 52.5410 -7.1780 290° West 457 526 36,000  Level FlightAware
07:22AM 52.5730 -7.3190 291° West 455 524 36,000  Level FlightAware
07:23AM 52.6020 -7.4500 290° West 452 520 36,000  Level FlightAware
07:24AM 52.6310 -7.5800 290° West 452 520 36,000  Level FlightAware
07:24AM 52.6630 -7.7230 290° West 451 519 36,000  Level FlightAware
07:25AM 52.6910 -7.8510 290° West 452 520 36,000  Level FlightAware
07:26AM 52.7210 -7.9900 290° West 454 522 36,000  Level FlightAware
07:26AM 52.7430 -8.0900 290° West 456 525 36,000  Level FlightAware
07:27AM 52.7780 -8.2520 290° West 458 527 36,000  Level FlightAware
07:28AM 52.8100 -8.3980 290° West 459 528 36,000  Level FlightAware
07:30AM 52.8478 -8.7011 282° West  Level Estimated
07:30AM 52.8820 -8.7410 282° West 457 526 36,000  Level FlightAware
07:31AM 52.9340 -8.9880 289° West 455 524 36,000  Level FlightAware
07:32AM 52.9610 -9.1210 289° West 457 526 36,000  Level FlightAware
07:32AM 52.9920 -9.2700 289° West 458 527 36,000  Level FlightAware
07:33AM 53.0210 -9.4140 289° West 460 529 36,000  Level FlightAware
07:34AM 53.0500 -9.5580 289° West 461 531 36,000  Level FlightAware
07:34AM 53.0770 -9.6910 289° West 460 529 36,000  Level FlightAware
07:35AM 53.1050 -9.8280 289° West 459 528 36,000  Level FlightAware
07:36AM 53.1300 -9.9540 288° West 457 526 36,000  Level FlightAware
07:36AM 53.1600 -10.1090 288° West 458 527 36,000  Level FlightAware
07:37AM 53.1850 -10.2360 288° West 459 528 36,000  Level FlightAware
07:38AM 53.2140 -10.3850 288° West 462 532 36,000  Level FlightAware
07:39AM 53.2420 -10.5310 288° West 463 533 36,000  Level FlightAware
07:39AM 53.2710 -10.6810 288° West 461 531 36,000  Level FlightAware
07:40AM 53.2960 -10.8130 288° West 463 533 36,000  Level FlightAware
07:41AM 53.3260 -10.9730 287° West 461 531 36,000  Level FlightAware
07:41AM 53.3500 -11.1010 287° West 462 532 36,000  Level FlightAware
07:42AM 53.3760 -11.2440 287° West 464 534 36,000  Level FlightAware
07:43AM 53.4050 -11.4000 287° West 463 533 36,000  Level FlightAware
07:43AM 53.4270 -11.5220 287° West 464 534 36,000  Level FlightAware
07:44AM 53.4550 -11.6780 287° West 463 533 36,000  Level FlightAware
07:45AM 53.4830 -11.8330 287° West 464 534 36,000  Level FlightAware
07:46AM 53.5080 -11.9730 287° West 465 535 36,000  Level FlightAware
07:46AM 53.5350 -12.1250 287° West 465 535 36,000  Level FlightAware
07:47AM 53.5590 -12.2650 286° West 463 533 36,000  Level FlightAware
07:48AM 53.5870 -12.4220 287° West 465 535 36,000  Level FlightAware
07:48AM 53.6100 -12.5570 286° West 466 536 36,000 180 Level FlightAware
07:50AM 53.6600 -12.8540 286° West 462 532 36,400 420 Climbing FlightAware
07:51AM 53.7040 -13.1140 286° West 459 528 37,300 600 Climbing FlightAware
07:52AM 53.7310 -13.2770 286° West 455 524 37,700 480 Climbing FlightAware
07:53AM 53.7530 -13.4140 285° West 456 525 38,000 180 Climbing FlightAware
07:53AM 53.7790 -13.5740 285° West 458 527 38,000  Level FlightAware
07:54AM 53.8020 -13.7120 286° West 460 529 38,000  Level FlightAware
07:55AM 53.8230 -13.8490 285° West 460 529 38,000  Level FlightAware
07:56AM 53.8560 -14.0560 285° West 460 529 38,000  Level FlightAware
07:57AM 53.9020 -14.3490 285° West 461 531 38,000  Level FlightAware
07:58AM 53.9210 -14.4830 284° West 461 531 38,000  Level FlightAware
07:58AM 53.9390 -14.6030 284° West 461 531 38,000  Level FlightAware
07:59AM 53.9610 -14.7520 284° West 461 531 38,000  Level FlightAware
08:00AM 53.9780 -14.8720 284° West 461 531 38,000  Level FlightAware
08:01AM 53.9960 -14.9910 284° West 461 531 38,000  Level FlightAware
08:01AM 54.0130 -15.1110 284° West 461 531 38,000  Level FlightAware
08:02AM 54.0310 -15.2310 284° West 461 531 38,000  Level FlightAware
08:03AM 54.0490 -15.3510 284° West 461 531 38,000  Level FlightAware
08:03AM 54.0700 -15.5010 283° West 461 531 38,000  Level FlightAware
08:04AM 54.0880 -15.6200 285° West 461 531 38,000  Level FlightAware
08:05AM 54.1060 -15.7400 284° West 461 531 38,000  Level FlightAware
08:05AM 54.1230 -15.8600 284° West 461 531 38,000  Level FlightAware
08:06AM 54.1450 -16.0110 284° West 461 531 38,000  Level FlightAware
08:07AM 54.1620 -16.1310 284° West 461 531 38,000  Level FlightAware
08:09AM 54.1780 -16.4619 275° West  Level Estimated
08:10AM 54.1874 -16.6668 275° West  Level Estimated
08:11AM 54.1965 -16.8717 274° West  Level Estimated
08:12AM 54.2053 -17.0767 274° West  Level Estimated
08:13AM 54.2137 -17.2818 274° West  Level Estimated
08:14AM 54.2217 -17.4870 274° West  Level Estimated
08:15AM 54.2294 -17.6922 274° West  Level Estimated
08:16AM 54.2368 -17.8976 274° West  Level Estimated
08:17AM 54.2438 -18.1029 273° West  Level Estimated
08:18AM 54.2504 -18.3084 273° West  Level Estimated
08:19AM 54.2567 -18.5140 273° West  Level Estimated
08:20AM 54.2627 -18.7195 273° West  Level Estimated
08:21AM 54.2683 -18.9252 273° West  Level Estimated
08:22AM 54.2735 -19.1309 273° West  Level Estimated
08:23AM 54.2784 -19.3367 272° West  Level Estimated
08:24AM 54.2830 -19.5425 272° West  Level Estimated
08:25AM 54.2872 -19.7483 272° West  Level Estimated
08:25AM 55.0000 -20.0000 274° West 438 504 38,000  Level ETMS Enhanced Traffic Management System
08:26AM 54.2910 -19.9542 272° West  Level Estimated
08:27AM 54.2944 -20.1551 272° West  Level Estimated
08:28AM 54.2975 -20.3561 272° West  Level Estimated
08:29AM 54.3003 -20.5571 271° West  Level Estimated
08:30AM 54.3027 -20.7582 271° West  Level Estimated
08:31AM 54.3048 -20.9592 271° West  Level Estimated
08:32AM 55.0520 -21.4863 273° West 438 504 38,000  Level FlightAware Transoceanic
08:33AM 55.0579 -21.6989 273° West 438 504 38,000  Level FlightAware Transoceanic
08:34AM 55.0635 -21.9116 273° West 438 504 38,000  Level FlightAware Transoceanic
08:35AM 55.0687 -22.1244 272° West 438 504 38,000  Level FlightAware Transoceanic
08:36AM 55.0735 -22.3372 272° West 438 504 38,000  Level FlightAware Transoceanic
08:37AM 55.0780 -22.5500 272° West 438 504 38,000  Level FlightAware Transoceanic
08:38AM 55.0821 -22.7629 272° West 438 504 38,000  Level FlightAware Transoceanic
08:39AM 55.0858 -22.9758 272° West 438 504 38,000  Level FlightAware Transoceanic
08:40AM 55.0891 -23.1888 271° West 438 504 38,000  Level FlightAware Transoceanic
08:41AM 55.0921 -23.4018 271° West 438 504 38,000  Level FlightAware Transoceanic
08:42AM 55.0947 -23.6148 271° West 438 504 38,000  Level FlightAware Transoceanic
08:43AM 55.0969 -23.8279 271° West 438 504 38,000  Level FlightAware Transoceanic
08:44AM 55.0988 -24.0410 271° West 438 504 38,000  Level FlightAware Transoceanic
08:45AM 55.1003 -24.2541 271° West 438 504 38,000  Level FlightAware Transoceanic
08:46AM 55.1014 -24.4672 270° West 438 504 38,000  Level FlightAware Transoceanic
08:47AM 55.1021 -24.6803 270° West 438 504 38,000  Level FlightAware Transoceanic
08:48AM 55.1025 -24.8934 270° West 438 504 38,000  Level FlightAware Transoceanic
08:49AM 55.1025 -25.1066 270° West 438 504 38,000  Level FlightAware Transoceanic
08:50AM 55.1021 -25.3197 270° West 438 504 38,000  Level FlightAware Transoceanic
08:51AM 55.1014 -25.5328 270° West 438 504 38,000  Level FlightAware Transoceanic
08:52AM 55.1003 -25.7459 269° West 438 504 38,000  Level FlightAware Transoceanic
08:53AM 55.0988 -25.9590 269° West 438 504 38,000  Level FlightAware Transoceanic
08:54AM 55.0969 -26.1721 269° West 438 504 38,000  Level FlightAware Transoceanic
08:55AM 55.0947 -26.3852 269° West 438 504 38,000  Level FlightAware Transoceanic
08:56AM 55.0921 -26.5982 269° West 438 504 38,000  Level FlightAware Transoceanic
08:57AM 55.0891 -26.8112 269° West 438 504 38,000  Level FlightAware Transoceanic
08:58AM 55.0858 -27.0242 268° West 438 504 38,000  Level FlightAware Transoceanic
08:59AM 55.0821 -27.2371 268° West 438 504 38,000  Level FlightAware Transoceanic
09:00AM 55.0780 -27.4500 268° West 438 504 38,000  Level FlightAware Transoceanic
09:01AM 55.0735 -27.6628 268° West 438 504 38,000  Level FlightAware Transoceanic
09:02AM 55.0687 -27.8756 268° West 438 504 38,000  Level FlightAware Transoceanic
09:03AM 55.0635 -28.0884 267° West 438 504 38,000  Level FlightAware Transoceanic
09:04AM 55.0579 -28.3011 267° West 438 504 38,000  Level FlightAware Transoceanic
09:05AM 55.0520 -28.5137 267° West 438 504 38,000  Level FlightAware Transoceanic
09:06AM 55.0457 -28.7262 267° West 438 504 38,000  Level FlightAware Transoceanic
09:07AM 55.0390 -28.9387 267° West 438 504 38,000  Level FlightAware Transoceanic
09:08AM 55.0319 -29.1511 267° West 438 504 38,000  Level FlightAware Transoceanic
09:09AM 55.0245 -29.3635 266° West 438 504 38,000  Level FlightAware Transoceanic
09:10AM 55.0167 -29.5757 266° West 438 504 38,000  Level FlightAware Transoceanic
09:11AM 55.0085 -29.7879 266° West 438 504 38,000  Level FlightAware Transoceanic
09:12AM 55.0003 -29.9920 266° West  Level FlightAware Approximate
09:13AM 54.9917 -30.1960 266° West  Level FlightAware Approximate
09:14AM 55.0076 -30.1877 274° West  Level FlightAware Approximate
09:15AM 55.0155 -30.3914 274° West  Level FlightAware Approximate
09:16AM 55.0230 -30.5953 274° West  Level FlightAware Approximate
09:17AM 55.0302 -30.7992 274° West  Level FlightAware Approximate
09:18AM 55.0371 -31.0032 273° West  Level FlightAware Approximate
09:19AM 55.0436 -31.2072 273° West  Level FlightAware Approximate
09:20AM 55.0498 -31.4114 273° West  Level FlightAware Approximate
09:21AM 55.0556 -31.6155 273° West  Level FlightAware Approximate
09:22AM 55.0611 -31.8198 273° West  Level FlightAware Approximate
09:23AM 55.0663 -32.0241 273° West  Level FlightAware Approximate
09:24AM 55.0711 -32.2284 272° West  Level FlightAware Approximate
09:25AM 55.0756 -32.4328 272° West  Level FlightAware Approximate
09:26AM 55.0797 -32.6372 272° West  Level FlightAware Approximate
09:27AM 55.0835 -32.8417 272° West  Level FlightAware Approximate
09:28AM 55.0869 -33.0462 272° West  Level FlightAware Approximate
09:29AM 55.0900 -33.2508 272° West  Level FlightAware Approximate
09:30AM 55.0928 -33.4553 271° West  Level FlightAware Approximate
09:31AM 55.0952 -33.6599 271° West  Level FlightAware Approximate
09:32AM 55.0973 -33.8646 271° West  Level FlightAware Approximate
09:33AM 55.0990 -34.0692 271° West  Level FlightAware Approximate
09:34AM 55.1004 -34.2738 271° West  Level FlightAware Approximate
09:35AM 55.1015 -34.4785 271° West  Level FlightAware Approximate
09:36AM 55.1022 -34.6832 270° West  Level FlightAware Approximate
09:37AM 55.1025 -34.8879 270° West  Level FlightAware Approximate
09:38AM 55.1025 -35.0926 270° West  Level FlightAware Approximate
09:39AM 55.1022 -35.2973 270° West  Level FlightAware Approximate
09:40AM 55.1015 -35.5019 270° West  Level FlightAware Approximate
09:41AM 55.1005 -35.7066 270° West  Level FlightAware Approximate
09:42AM 55.0992 -35.9113 269° West  Level FlightAware Approximate
09:43AM 55.0975 -36.1159 269° West  Level FlightAware Approximate
09:44AM 55.0954 -36.3206 269° West  Level FlightAware Approximate
09:45AM 55.0930 -36.5252 269° West  Level FlightAware Approximate
09:46AM 55.0903 -36.7297 269° West  Level FlightAware Approximate
09:47AM 55.0872 -36.9343 269° West  Level FlightAware Approximate
09:48AM 55.0838 -37.1388 268° West  Level FlightAware Approximate
09:49AM 55.0801 -37.3433 268° West  Level FlightAware Approximate
09:50AM 55.0760 -37.5477 268° West  Level FlightAware Approximate
09:51AM 55.0715 -37.7521 268° West  Level FlightAware Approximate
09:52AM 55.0667 -37.9565 268° West  Level FlightAware Approximate
09:53AM 55.0616 -38.1608 268° West  Level FlightAware Approximate
09:54AM 55.0562 -38.3650 267° West  Level FlightAware Approximate
09:55AM 55.0504 -38.5692 267° West  Level FlightAware Approximate
09:56AM 55.0442 -38.7733 267° West  Level FlightAware Approximate
09:57AM 55.0377 -38.9774 267° West  Level FlightAware Approximate
09:58AM 55.0309 -39.1814 267° West  Level FlightAware Approximate
09:59AM 55.0237 -39.3853 267° West  Level FlightAware Approximate
10:00AM 55.0162 -39.5891 266° West  Level FlightAware Approximate
10:01AM 55.0084 -39.7925 266° West  Level FlightAware Approximate
10:02AM 55.0001 -39.9966 266° West  Level FlightAware Approximate
10:03AM 55.0081 -40.2007 274° West  Level FlightAware Approximate
10:04AM 55.0160 -40.4048 274° West  Level FlightAware Approximate
10:05AM 55.0235 -40.6091 274° West  Level FlightAware Approximate
10:06AM 55.0307 -40.8134 274° West  Level FlightAware Approximate
10:07AM 55.0376 -41.0178 273° West  Level FlightAware Approximate
10:08AM 55.0441 -41.2223 273° West  Level FlightAware Approximate
10:09AM 55.0502 -41.4268 273° West  Level FlightAware Approximate
10:10AM 55.0561 -41.6314 273° West  Level FlightAware Approximate
10:11AM 55.0615 -41.8360 273° West  Level FlightAware Approximate
10:12AM 55.0667 -42.0407 273° West  Level FlightAware Approximate
10:13AM 55.0715 -42.2454 272° West  Level FlightAware Approximate
10:14AM 55.0759 -42.4502 272° West  Level FlightAware Approximate
10:15AM 55.0800 -42.6551 272° West  Level FlightAware Approximate
10:16AM 55.0838 -42.8600 272° West  Level FlightAware Approximate
10:17AM 55.0872 -43.0649 272° West  Level FlightAware Approximate
10:18AM 55.0903 -43.2698 272° West  Level FlightAware Approximate
10:19AM 55.0930 -43.4748 271° West  Level FlightAware Approximate
10:20AM 55.0954 -43.6798 271° West  Level FlightAware Approximate
10:21AM 55.0975 -43.8848 271° West  Level FlightAware Approximate
10:22AM 55.0992 -44.0899 271° West  Level FlightAware Approximate
10:23AM 55.1005 -44.2949 271° West  Level FlightAware Approximate
10:24AM 55.1016 -44.5000 271° West  Level FlightAware Approximate
10:25AM 55.1022 -44.7051 270° West  Level FlightAware Approximate
10:26AM 55.1025 -44.9102 270° West  Level FlightAware Approximate
10:27AM 55.1025 -45.1153 270° West  Level FlightAware Approximate
10:28AM 55.1021 -45.3204 270° West  Level FlightAware Approximate
10:29AM 55.1014 -45.5255 270° West  Level FlightAware Approximate
10:30AM 55.1004 -45.7305 270° West  Level FlightAware Approximate
10:31AM 55.0990 -45.9356 269° West  Level FlightAware Approximate
10:32AM 55.0973 -46.1406 269° West  Level FlightAware Approximate
10:33AM 55.0952 -46.3456 269° West  Level FlightAware Approximate
10:34AM 55.0927 -46.5507 269° West  Level FlightAware Approximate
10:35AM 55.0900 -46.7556 269° West  Level FlightAware Approximate
10:36AM 55.0868 -46.9606 269° West  Level FlightAware Approximate
10:37AM 55.0834 -47.1655 268° West  Level FlightAware Approximate
10:38AM 55.0796 -47.3704 268° West  Level FlightAware Approximate
10:39AM 55.0754 -47.5752 268° West  Level FlightAware Approximate
10:40AM 55.0709 -47.7800 268° West  Level FlightAware Approximate
10:41AM 55.0661 -47.9847 268° West  Level FlightAware Approximate
10:42AM 55.0609 -48.1894 268° West  Level FlightAware Approximate
10:43AM 55.0554 -48.3941 267° West  Level FlightAware Approximate
10:44AM 55.0495 -48.5986 267° West  Level FlightAware Approximate
10:45AM 55.0433 -48.8032 267° West  Level FlightAware Approximate
10:46AM 55.0367 -49.0076 267° West  Level FlightAware Approximate
10:47AM 55.0298 -49.2120 267° West  Level FlightAware Approximate
10:48AM 55.0226 -49.4163 267° West  Level FlightAware Approximate
10:49AM 55.0150 -49.6205 266° West  Level FlightAware Approximate
10:50AM 55.0071 -49.8247 266° West  Level FlightAware Approximate
10:51AM 54.9938 -50.0267 248° West  Level FlightAware Approximate
10:52AM 54.9497 -50.2162 248° West  Level FlightAware Approximate
10:53AM 54.9054 -50.4052 248° West  Level FlightAware Approximate
10:54AM 54.8607 -50.5938 248° West  Level FlightAware Approximate
10:55AM 54.8158 -50.7820 248° West  Level FlightAware Approximate
10:56AM 54.7705 -50.9698 247° West  Level FlightAware Approximate
10:57AM 54.7250 -51.1572 247° West  Level FlightAware Approximate
10:58AM 54.6792 -51.3441 247° West  Level FlightAware Approximate
10:59AM 54.6331 -51.5306 247° West  Level FlightAware Approximate
11:00AM 54.5867 -51.7167 247° West  Level FlightAware Approximate
11:01AM 54.5400 -51.9024 247° West  Level FlightAware Approximate
11:02AM 54.4930 -52.0876 246° West  Level FlightAware Approximate
11:03AM 54.4458 -52.2724 246° West  Level FlightAware Approximate
11:04AM 54.3983 -52.4568 246° West  Level FlightAware Approximate
11:05AM 54.3505 -52.6408 246° West  Level FlightAware Approximate
11:05AM 54.0333 -54.2500 245° Southwest 470 541 38,000  Level Gander Center
11:06AM 54.3024 -52.8243 246° West  Level FlightAware Approximate
11:06AM 53.9833 -54.4500 247° West 470 541 38,000  Level Gander Center
11:07AM 54.2540 -53.0074 246° West  Level FlightAware Approximate
11:07AM 53.9333 -54.6667 249° West 470 541 38,000  Level Gander Center
11:08AM 54.2054 -53.1901 246° West  Level FlightAware Approximate
11:08AM 53.8833 -54.8667 247° West 470 541 38,000  Level Gander Center
11:09AM 54.1565 -53.3723 245° Southwest  Level FlightAware Approximate
11:09AM 53.8000 -55.0500 232° Southwest 470 541 38,000  Level Gander Center
11:10AM 54.1074 -53.5538 245° Southwest  Level FlightAware Approximate
11:10AM 53.7500 -55.2500 247° West 460 529 38,000  Level Gander Center
11:11AM 53.6833 -55.4333 239° Southwest 460 529 38,000  Level Gander Center
11:12AM 53.6167 -55.6167 239° Southwest 480 552 38,000  Level Gander Center
11:13AM 53.5833 -55.6833 230° Southwest 480 552 38,000  Level Moncton Center
11:13AM 53.5333 -55.8167 238° Southwest 470 541 38,000  Level Gander Center
11:14AM 53.5167 -55.9000 251° West 470 541 38,000  Level Moncton Center
11:15AM 53.4667 -56.0833 245° Southwest 470 541 38,000  Level Moncton Center
11:15AM 53.4000 -56.2000 226° Southwest 470 541 38,000  Level Gander Center
11:16AM 53.3833 -56.2500 241° Southwest 470 541 38,000  Level Moncton Center
11:17AM 53.3167 -56.4333 239° Southwest 470 541 38,000  Level Moncton Center
11:18AM 53.2500 -56.6167 239° Southwest 470 541 38,000  Level Moncton Center
11:19AM 53.1667 -56.8333 237° Southwest 470 541 38,000  Level Moncton Center
11:20AM 53.1167 -57.0000 243° Southwest 470 541 38,000  Level Moncton Center
11:20AM 53.0667 -57.1000 230° Southwest 470 541 38,000  Level Gander Center
11:21AM 53.0500 -57.1833 252° West 470 541 38,000  Level Moncton Center
11:22AM 52.9667 -57.3667 233° Southwest 460 529 38,000  Level Moncton Center
11:22AM 52.9167 -57.4833 235° Southwest 460 529 38,000  Level Gander Center
11:23AM 52.8333 -57.6333 227° Southwest 460 529 38,000  Level Gander Center
11:24AM 52.7667 -57.8000 237° Southwest 460 529 38,000  Level Gander Center
11:25AM 52.6833 -57.9667 231° Southwest 460 529 38,000  Level Gander Center
11:26AM 52.6500 -58.0167 222° Southwest 460 529 38,000  Level Moncton Center
11:26AM 52.6000 -58.1500 238° Southwest 460 529 38,000  Level Gander Center
11:27AM 52.5167 -58.3167 231° Southwest 460 529 38,000  Level Gander Center
11:28AM 52.4500 -58.4833 237° Southwest 460 529 38,000  Level Gander Center
11:29AM 52.3667 -58.6500 231° Southwest 460 529 38,000  Level Gander Center
11:30AM 52.2833 -58.8000 228° Southwest 460 529 38,000  Level Gander Center
11:31AM 52.2000 -58.9667 231° Southwest 460 529 38,000  Level Gander Center
11:32AM 52.1167 -59.1333 231° Southwest 460 529 38,000  Level Gander Center
11:33AM 52.0500 -59.3000 237° Southwest 460 529 38,000  Level Gander Center
11:34AM 51.9667 -59.4667 231° Southwest 460 529 38,000  Level Gander Center
11:35AM 51.8833 -59.6000 225° Southwest 460 529 38,000  Level Gander Center
11:36AM 51.8500 -59.6833 237° Southwest 460 529 38,000  Level Moncton Center
11:37AM 51.7667 -59.8333 228° Southwest 460 529 38,000  Level Moncton Center
11:37AM 51.7167 -59.9333 231° Southwest 460 529 38,000  Level Gander Center
11:38AM 51.6333 -60.1000 231° Southwest 450 518 38,000  Level Gander Center
11:39AM 51.5500 -60.2333 225° Southwest 450 518 38,000  Level Gander Center
11:40AM 51.4667 -60.4000 231° Southwest 460 529 38,000  Level Gander Center
11:41AM 51.4500 -60.4500 242° Southwest 460 529 38,000  Level Moncton Center
11:42AM 51.3500 -60.6167 226° Southwest 460 529 38,000  Level Moncton Center
11:42AM 51.3167 -60.7167 242° Southwest 460 529 38,000  Level Gander Center
11:43AM 51.2833 -60.7833 231° Southwest 460 529 38,000  Level Moncton Center
11:43AM 51.2167 -60.8833 223° Southwest 450 518 38,000  Level Gander Center
11:44AM 51.1500 -61.0167 231° Southwest 460 529 38,000  Level Gander Center
11:45AM 51.0500 -61.1833 226° Southwest 460 529 38,000  Level Gander Center
11:46AM 50.9833 -61.3333 235° Southwest 450 518 38,000  Level Gander Center
11:47AM 50.9000 -61.4667 225° Southwest 450 518 38,000  Level Gander Center
11:48AM 50.8667 -61.5333 232° Southwest 450 518 38,000  Level Moncton Center
11:48AM 50.8167 -61.6333 232° Southwest 450 518 38,000  Level Gander Center
11:49AM 50.7333 -61.7833 229° Southwest 450 518 38,000  Level Gander Center
11:50AM 50.6500 -61.9333 229° Southwest 440 506 38,000  Level Gander Center
11:51AM 50.6167 -61.9667 212° Southwest 450 518 38,000  Level Moncton Center
11:51AM 50.5833 -62.0667 242° Southwest 450 518 38,000  Level Gander Center
11:52AM 50.5000 -62.2333 232° Southwest 440 506 38,000  Level Gander Center
11:53AM 50.4167 -62.3500 222° Southwest 450 518 38,000  Level Gander Center
11:54AM 50.3333 -62.5167 232° Southwest 440 506 38,000  Level Gander Center
11:55AM 50.2500 -62.6667 229° Southwest 450 518 38,000  Level Gander Center
11:56AM 50.1833 -62.8000 232° Southwest 440 506 38,000  Level Gander Center
11:57AM 50.0833 -62.9500 224° Southwest 450 518 38,000  Level Gander Center
11:58AM 50.0500 -62.9833 213° Southwest 440 506 38,000  Level Moncton Center
11:59AM 49.9667 -63.1500 232° Southwest 440 506 38,000  Level Moncton Center
11:59AM 49.9167 -63.2333 227° Southwest 440 506 38,000  Level Gander Center
12:00PM 49.8500 -63.3833 235° Southwest 440 506 38,000  Level Gander Center
12:01PM 49.8000 -63.4333 213° Southwest 430 495 38,000  Level Moncton Center
12:02PM 49.7167 -63.5667 226° Southwest 430 495 38,000  Level Moncton Center
12:02PM 49.6833 -63.6667 243° Southwest 430 495 38,000  Level Gander Center
12:03PM 49.6000 -63.7833 222° Southwest 430 495 38,000  Level Gander Center
12:04PM 49.5667 -63.8333 224° Southwest 430 495 38,000  Level Moncton Center
12:05PM 49.4833 -63.9667 226° Southwest 430 495 38,000  Level Moncton Center
12:06PM 49.4000 -64.1167 230° Southwest 430 495 38,000  Level Moncton Center
12:07PM 49.3167 -64.2500 226° Southwest 430 495 38,000  Level Moncton Center
12:08PM 49.2333 -64.3667 222° Southwest 430 495 38,000  Level Moncton Center
12:08PM 49.1833 -64.4500 227° Southwest 430 495 38,000  Level Gander Center
12:09PM 49.1000 -64.6000 230° Southwest 430 495 38,000  Level Gander Center
12:10PM 49.0833 -64.6333 233° Southwest 430 495 38,000  Level Moncton Center
12:11PM 48.9833 -64.7833 225° Southwest 430 495 38,000  Level Moncton Center
12:12PM 48.9167 -64.9000 229° Southwest 420 483 38,000  Level Moncton Center
12:13PM 48.8333 -65.0333 227° Southwest 420 483 38,000  Level Moncton Center
12:14PM 48.7500 -65.1667 227° Southwest 420 483 38,000  Level Moncton Center
12:15PM 48.6667 -65.2833 223° Southwest 420 483 38,000  Level Moncton Center
12:16PM 48.6000 -65.4167 233° Southwest 420 483 38,000  Level Moncton Center
12:17PM 48.5167 -65.5667 230° Southwest 410 472 38,000  Level Moncton Center
12:18PM 48.4333 -65.6667 219° Southwest 410 472 38,000  Level Moncton Center
12:19PM 48.3667 -65.7833 229° Southwest 410 472 38,000  Level Moncton Center
12:20PM 48.2833 -65.9000 223° Southwest 400 460 38,000  Level Moncton Center
12:21PM 48.2000 -66.0333 227° Southwest 400 460 38,000  Level Moncton Center
12:22PM 48.1167 -66.1500 223° Southwest 400 460 38,000  Level Moncton Center
12:23PM 48.0500 -66.2833 233° Southwest 390 449 38,000  Level Moncton Center
12:24PM 47.9833 -66.3667 220° Southwest 380 437 38,000  Level Moncton Center
12:25PM 47.9000 -66.5000 227° Southwest 380 437 38,000  Level Moncton Center
12:26PM 47.8333 -66.6000 225° Southwest 370 426 38,000 -60 Level Moncton Center
12:27PM 47.7667 -66.7167 230° Southwest 380 437 37,900 -480 Descending Moncton Center
12:28PM 47.6833 -66.8333 223° Southwest 380 437 37,100 -900 Descending Moncton Center
12:29PM 47.6000 -66.9333 219° Southwest 380 437 36,200 -600 Descending Moncton Center
12:30PM 47.5333 -67.0500 230° Southwest 370 426 36,000 -120 Descending Moncton Center
12:31PM 47.4667 -67.1500 225° Southwest 370 426 36,000  Level Moncton Center
12:32PM 47.3833 -67.2667 223° Southwest 380 437 36,000 -420 Level Moncton Center
12:33PM 47.3000 -67.3667 219° Southwest 400 460 35,200 -780 Descending Moncton Center
12:33PM 47.2594 -67.3794 192° South 400 460 34,800 -780 Descending Boston Center
12:34PM 47.1492 -67.4322 198° South 405 466 34,000 -600 Descending Boston Center
12:35PM 47.0667 -67.4667 196° South 420 483 34,000  Level Moncton Center
12:36PM 46.9667 -67.5333 204° Southwest 420 483 34,000  Level Moncton Center
12:37PM 46.8500 -67.6000 201° Southwest 420 483 34,000  Level Moncton Center
12:43PM 46.1770 -67.9710 201° Southwest 428 493 34,000  Level FlightAware
12:43PM 46.1030 -68.0110 201° Southwest 429 494 34,000  Level FlightAware
12:44PM 46.0200 -68.0550 200° South 431 496 34,000  Level FlightAware
12:45PM 45.9560 -68.0890 200° South 434 499 34,000  Level FlightAware
12:46PM 45.8610 -68.1390 200° South 432 497 34,000  Level FlightAware
12:46PM 45.7860 -68.1790 200° South 432 497 34,000  Level FlightAware
12:47PM 45.7030 -68.2230 200° South 434 499 34,000  Level FlightAware
12:48PM 45.6050 -68.2740 200° South 432 497 34,000  Level FlightAware
12:49PM 45.4750 -68.3420 200° South 429 494 34,000  Level FlightAware
12:50PM 45.3410 -68.4120 200° South 433 498 34,000  Level FlightAware
12:51PM 45.2270 -68.4710 200° South 441 507 34,000  Level FlightAware
12:52PM 45.1430 -68.5150 200° South 440 506 34,000  Level FlightAware
12:53PM 45.0650 -68.5550 200° South 442 509 34,000  Level FlightAware
12:53PM 44.9880 -68.5940 200° South 442 509 34,000  Level FlightAware
12:54PM 44.9020 -68.6380 200° South 441 507 34,000  Level FlightAware
12:55PM 44.8240 -68.6770 200° South 441 507 34,000  Level FlightAware
12:55PM 44.7480 -68.7170 200° South 443 510 34,000  Level FlightAware
12:56PM 44.6690 -68.7560 199° South 443 510 34,000  Level FlightAware
12:57PM 44.5850 -68.7990 200° South 442 509 34,000  Level FlightAware
12:58PM 44.4980 -68.8420 199° South 444 511 34,000  Level FlightAware
12:58PM 44.4190 -68.8820 200° South 448 516 34,000  Level FlightAware
12:59PM 44.3420 -68.9210 200° South 448 516 34,000  Level FlightAware
12:59PM 44.2760 -68.9540 200° South 447 514 34,000  Level FlightAware
01:00PM 44.1930 -68.9950 200° South 445 512 34,000  Level FlightAware
01:01PM 44.0620 -69.0600 200° South 443 510 34,000  Level FlightAware
01:02PM 43.9850 -69.0980 200° South 444 511 34,000  Level FlightAware
01:03PM 43.9090 -69.1350 199° South 446 513 34,000  Level FlightAware
01:03PM 43.8320 -69.1730 200° South 447 514 34,000  Level FlightAware
01:04PM 43.7440 -69.2160 199° South 445 512 34,000  Level FlightAware
01:05PM 43.6600 -69.2580 200° South 445 512 34,000  Level FlightAware
01:05PM 43.5810 -69.2960 199° South 443 510 34,000  Level FlightAware
01:06PM 43.5080 -69.3320 200° South 442 509 34,000  Level FlightAware
01:07PM 43.4430 -69.3630 199° South 441 507 34,000 -180 Level FlightAware
01:07PM 43.3460 -69.4100 199° South 434 499 33,800 -660 Descending FlightAware
01:08PM 43.2780 -69.4430 199° South 425 489 33,100 -1,080 Descending FlightAware
01:09PM 43.1700 -69.4950 199° South 425 489 32,000 -1,200 Descending FlightAware
01:10PM 43.0850 -69.5360 199° South 427 491 31,100 -1,320 Descending FlightAware
01:11PM 42.9960 -69.5780 199° South 425 489 30,100 -780 Descending FlightAware
01:11PM 42.9190 -69.6150 199° South 446 513 30,000 -120 Descending FlightAware
01:12PM 42.8460 -69.6500 199° South 445 512 30,000  Level FlightAware
01:13PM 42.7560 -69.6920 199° South 440 506 30,000  Level FlightAware
01:13PM 42.6820 -69.7270 199° South 442 509 30,000  Level FlightAware
01:14PM 42.5980 -69.7670 199° South 440 506 30,000  Level FlightAware
01:15PM 42.5080 -69.8090 199° South 442 509 30,000  Level FlightAware
01:15PM 42.4320 -69.8450 199° South 443 510 30,000  Level FlightAware
01:16PM 42.3410 -69.8870 199° South 444 511 30,000  Level FlightAware
01:17PM 42.2620 -69.9240 199° South 443 510 30,000  Level FlightAware
01:18PM 42.1850 -69.9600 199° South 441 507 30,000 -480 Level FlightAware
01:18PM 42.0970 -70.0010 199° South 444 511 29,400 -900 Descending FlightAware
01:19PM 42.0250 -70.0460 205° Southwest 422 486 28,800 -960 Descending FlightAware
01:20PM 41.9600 -70.1220 221° Southwest 407 468 28,100 -600 Descending FlightAware
01:20PM 41.9110 -70.1930 227° Southwest 408 470 28,000 -120 Descending FlightAware
01:21PM 41.8690 -70.2550 228° Southwest 404 465 28,000 -180 Level FlightAware
01:22PM 41.8040 -70.3500 227° Southwest 406 467 27,800 -720 Descending FlightAware
01:22PM 41.7550 -70.4210 227° Southwest 402 463 27,000 -1,080 Descending FlightAware
01:23PM 41.7040 -70.4960 228° Southwest 386 444 26,400 -720 Descending FlightAware
01:24PM 41.6490 -70.5750 227° Southwest 386 444 26,000 -300 Descending FlightAware
01:25PM 41.6000 -70.6460 227° Southwest 388 447 26,000  Level FlightAware
01:25PM 41.5430 -70.7280 227° Southwest 389 448 26,000  Level FlightAware
01:26PM 41.4950 -70.7970 227° Southwest 389 448 26,000  Level FlightAware
01:27PM 41.4430 -70.8720 227° Southwest 390 449 26,000  Level FlightAware
01:27PM 41.3890 -70.9490 227° Southwest 391 450 26,000  Level FlightAware
01:28PM 41.3370 -71.0240 227° Southwest 398 458 26,000  Level FlightAware
01:29PM 41.2810 -71.1040 227° Southwest 400 460 26,000  Level FlightAware
01:29PM 41.2410 -71.1860 237° Southwest 395 455 26,000  Level FlightAware
01:30PM 41.2130 -71.2860 250° West 392 451 26,000  Level FlightAware
01:31PM 41.1870 -71.3790 250° West 395 455 26,000  Level FlightAware
01:32PM 41.1620 -71.4680 250° West 398 458 26,000  Level FlightAware
01:32PM 41.1420 -71.5400 250° West 398 458 26,000  Level FlightAware
01:33PM 41.0970 -71.6990 249° West 403 464 26,000  Level FlightAware
01:34PM 41.0710 -71.7900 249° West 404 465 26,000  Level FlightAware
01:35PM 41.0470 -71.8740 249° West 402 463 26,000  Level FlightAware
01:35PM 41.0190 -71.9700 249° West 402 463 26,000  Level FlightAware
01:36PM 40.9680 -72.0760 238° Southwest 408 470 26,000  Level FlightAware
01:37PM 40.9150 -72.1500 227° Southwest 406 467 26,000  Level FlightAware
01:37PM 40.8600 -72.2270 227° Southwest 408 470 26,000  Level FlightAware
01:38PM 40.8306 -72.2681 227° Southwest 407 468 26,000  Level FlightAware ADS-B
01:38PM 40.7917 -72.3227 227° Southwest 408 470 26,000  Level FlightAware ADS-B
01:39PM 40.7493 -72.3821 227° Southwest 409 471 26,000  Level FlightAware ADS-B
01:39PM 40.6955 -72.4571 227° Southwest 406 467 26,000  Level FlightAware ADS-B
01:40PM 40.6420 -72.5320 227° Southwest 408 470 26,000  Level FlightAware
01:40PM 40.6296 -72.5488 226° Southwest 408 470 26,000 -480 Level FlightAware ADS-B
01:41PM 40.5885 -72.6059 227° Southwest 408 470 25,700 -1,140 Descending FlightAware ADS-B
01:42PM 40.5341 -72.6812 226° Southwest 403 464 24,600 -1,860 Descending FlightAware ADS-B
01:42PM 40.4758 -72.7616 226° Southwest 396 456 23,000 -2,100 Descending FlightAware ADS-B
01:43PM 40.4213 -72.8368 226° Southwest 391 450 21,500 -1,980 Descending FlightAware ADS-B
01:44PM 40.3740 -72.9020 226° Southwest 379 436 20,300 -1,740 Descending FlightAware
01:44PM 40.3621 -72.9180 226° Southwest 373 429 20,100 -480 Descending FlightAware ADS-B
01:44PM 40.3260 -72.9670 226° Southwest 369 425 20,000 -180 Descending FlightAware
01:44PM 40.3174 -72.9793 227° Southwest 365 420 20,000  Level FlightAware ADS-B
01:45PM 40.2710 -73.0430 226° Southwest 390 449 20,000  Level FlightAware
01:45PM 40.2546 -73.0651 226° Southwest 378 435 20,000  Level FlightAware ADS-B
01:46PM 40.1799 -73.1668 226° Southwest 392 451 20,000  Level FlightAware ADS-B
01:47PM 40.1406 -73.2201 226° Southwest 393 452 20,000  Level FlightAware ADS-B
01:47PM 40.0996 -73.2757 226° Southwest 391 450 20,000  Level FlightAware ADS-B
01:48PM 40.0596 -73.3299 226° Southwest 391 450 20,000  Level FlightAware ADS-B
01:49PM 40.0056 -73.4028 226° Southwest 393 452 20,000  Level FlightAware ADS-B
01:49PM 39.9624 -73.4611 226° Southwest 393 452 20,000  Level FlightAware ADS-B
01:50PM 39.9120 -73.5289 226° Southwest 394 453 20,000  Level FlightAware ADS-B
01:50PM 39.8748 -73.5858 230° Southwest 392 451 20,000  Level FlightAware ADS-B
01:51PM 39.8362 -73.6470 231° Southwest 392 451 20,000  Level FlightAware ADS-B
01:51PM 39.8008 -73.7029 231° Southwest 393 452 20,000  Level FlightAware ADS-B
01:52PM 39.7585 -73.7698 231° Southwest 393 452 20,000 -180 Level FlightAware ADS-B
01:53PM 39.7181 -73.8336 231° Southwest 392 451 19,800 -780 Descending FlightAware ADS-B
01:53PM 39.6828 -73.8892 230° Southwest 384 442 19,200 -1,680 Descending FlightAware ADS-B
01:54PM 39.6444 -73.9496 230° Southwest 381 438 18,000 -2,220 Descending FlightAware ADS-B
01:54PM 39.6084 -74.0061 230° Southwest 377 434 16,800 -2,220 Descending FlightAware ADS-B
01:55PM 39.5751 -74.0583 230° Southwest 368 423 15,700 -2,160 Descending FlightAware ADS-B
01:55PM 39.5372 -74.1183 231° Southwest 356 410 14,400 -2,100 Descending FlightAware ADS-B
01:56PM 39.5304 -74.1341 241° Southwest 349 402 14,200 -1,080 Descending FlightAware ADS-B
01:56PM 39.5253 -74.1631 257° West 345 397 14,000 -360 Descending FlightAware ADS-B
01:56PM 39.5258 -74.2103 271° West 349 402 14,000  Level FlightAware ADS-B
01:57PM 39.5267 -74.2774 271° West 350 403 14,000 -780 Level FlightAware ADS-B
01:57PM 39.5277 -74.3407 271° West 356 410 13,200 -1,860 Descending FlightAware ADS-B
01:58PM 39.5289 -74.4078 271° West 351 404 12,100 -1,500 Descending FlightAware ADS-B
01:59PM 39.5315 -74.5527 271° West 334 384 10,600 -1,080 Descending FlightAware ADS-B
01:59PM 39.5323 -74.6077 271° West 334 384 10,300 -540 Descending FlightAware ADS-B
02:00PM 39.5332 -74.6578 271° West 275 316 10,100 -420 Descending FlightAware ADS-B
02:00PM 39.5335 -74.6830 271° West 259 298 10,000 -1,080 Descending FlightAware ADS-B
02:01PM 39.5342 -74.7281 271° West 256 295 9,300 -1,200 Descending FlightAware ADS-B
02:01PM 39.5346 -74.7517 271° West 259 298 9,100 -600 Descending FlightAware ADS-B
02:01PM 39.5350 -74.7771 271° West 259 298 9,000 -720 Descending FlightAware ADS-B
02:02PM 39.5354 -74.8055 271° West 259 298 8,700 -720 Descending FlightAware ADS-B
02:02PM 39.5358 -74.8310 271° West 256 295 8,600 -600 Descending FlightAware ADS-B
02:02PM 39.5362 -74.8553 271° West 256 295 8,400 -1,200 Descending FlightAware ADS-B
02:02PM 39.5365 -74.8784 271° West 256 295 8,000 -1,440 Descending FlightAware ADS-B
02:03PM 39.5370 -74.8943 272° West 257 296 7,800 -1,500 Descending FlightAware ADS-B
02:03PM 39.5382 -74.9023 281° West 258 297 7,600 -1,800 Descending FlightAware ADS-B
02:03PM 39.5398 -74.9083 289° West 263 303 7,500 -1,200 Descending FlightAware ADS-B
02:03PM 39.5433 -74.9164 299° West 266 306 7,400 -1,200 Descending FlightAware ADS-B
02:03PM 39.5534 -74.9372 302° West 265 305 7,100 -1,200 Descending FlightAware ADS-B
02:03PM 39.5655 -74.9655 299° West 263 303 6,700 -1,320 Descending FlightAware ADS-B
02:04PM 39.5773 -74.9933 299° West 262 302 6,200 -1,380 Descending FlightAware ADS-B
02:04PM 39.5866 -75.0156 298° West 262 302 5,900 -1,320 Descending FlightAware ADS-B
02:04PM 39.5958 -75.0375 299° West 262 302 5,500 -1,560 Descending FlightAware ADS-B
02:05PM 39.6048 -75.0590 299° West 264 304 5,100 -840 Descending FlightAware ADS-B
02:05PM 39.6181 -75.0893 300° West 268 308 5,000 -180 Descending FlightAware ADS-B
02:05PM 39.6277 -75.1135 297° West 269 310 5,000  Level FlightAware ADS-B
02:05PM 39.6369 -75.1354 299° West 273 314 5,000  Level FlightAware ADS-B
02:06PM 39.6460 -75.1573 298° West 272 313 5,000  Level FlightAware ADS-B
02:06PM 39.6552 -75.1794 298° West 276 318 5,000  Level FlightAware ADS-B
02:06PM 39.6644 -75.2014 299° West 276 318 5,000  Level FlightAware ADS-B
02:06PM 39.6736 -75.2235 298° West 277 319 5,000  Level FlightAware ADS-B
02:07PM 39.6830 -75.2461 298° West 275 316 5,000  Level FlightAware ADS-B
02:07PM 39.6926 -75.2690 299° West 277 319 5,000  Level FlightAware ADS-B
02:07PM 39.7003 -75.2875 298° West 274 315 5,000  Level FlightAware ADS-B
02:07PM 39.7099 -75.3104 299° West 274 315 5,000  Level FlightAware ADS-B
02:08PM 39.7195 -75.3334 298° West 260 299 5,000  Level FlightAware ADS-B
02:08PM 39.7281 -75.3542 298° West 245 282 5,000  Level FlightAware ADS-B
02:08PM 39.7333 -75.3673 297° West 234 269 5,000  Level FlightAware ADS-B
02:08PM 39.7348 -75.3726 290° West 229 264 5,000  Level FlightAware ADS-B
02:08PM 39.7357 -75.3793 280° West 220 253 5,000  Level FlightAware ADS-B
02:08PM 39.7357 -75.3857 270° West 211 243 5,000  Level FlightAware ADS-B
02:08PM 39.7349 -75.3926 261° West 202 232 5,000  Level FlightAware ADS-B
02:09PM 39.7329 -75.4044 258° West 191 220 5,000 180 Level FlightAware ADS-B
02:09PM 39.7293 -75.4213 255° West 176 203 5,100  Climbing FlightAware ADS-B
02:09PM 39.7252 -75.4402 254° West 176 203 5,000 -300 Descending FlightAware ADS-B
02:09PM 39.7246 -75.4435 257° West 176 203 5,000  Level FlightAware ADS-B
02:09PM 39.7244 -75.4510 268° West 182 209 5,000 -600 Level FlightAware ADS-B
02:09PM 39.7253 -75.4561 283° West 184 212 4,900 -1,380 Descending FlightAware ADS-B
02:10PM 39.7270 -75.4608 295° West 190 219 4,800 -1,680 Descending FlightAware ADS-B
02:10PM 39.7307 -75.4665 310° West 197 227 4,600 -1,680 Descending FlightAware ADS-B
02:10PM 39.7339 -75.4697 322° Northwest 199 229 4,500 -1,500 Descending FlightAware ADS-B
02:10PM 39.7370 -75.4717 334° Northwest 200 230 4,400 -1,500 Descending FlightAware ADS-B
02:10PM 39.7411 -75.4737 339° North 200 230 4,300 -1,440 Descending FlightAware ADS-B
02:10PM 39.7545 -75.4798 341° North 197 227 3,900 -1,320 Descending FlightAware ADS-B
02:10PM 39.7687 -75.4866 340° North 197 227 3,600 -960 Descending FlightAware ADS-B
02:11PM 39.7817 -75.4928 340° North 196 226 3,400 -960 Descending FlightAware ADS-B
02:11PM 39.7848 -75.4941 342° North 195 224 3,300 -2,040 Descending FlightAware ADS-B
02:11PM 39.7874 -75.4948 348° North 195 224 3,200 -1,020 Descending FlightAware ADS-B
02:11PM 39.7901 -75.4952 354° North 195 224 3,200 -900 Level FlightAware ADS-B
02:11PM 39.7934 -75.4949 North 195 224 3,100 -780 Descending FlightAware ADS-B
02:11PM 39.7966 -75.4938 15° North 192 221 3,100 -780 Level FlightAware ADS-B
02:11PM 39.7999 -75.4918 25° Northeast 190 219 3,000 -780 Descending FlightAware ADS-B
02:11PM 39.8031 -75.4891 33° Northeast 189 217 3,000  Level FlightAware ADS-B
02:11PM 39.8055 -75.4865 40° Northeast 189 217 3,000  Level FlightAware ADS-B
02:11PM 39.8102 -75.4808 43° Northeast 189 217 3,000  Level FlightAware ADS-B
02:11PM 39.8188 -75.4695 45° Northeast 186 214 3,000  Level FlightAware ADS-B
02:12PM 39.8206 -75.4666 51° Northeast 186 214 3,000 -600 Level FlightAware ADS-B
02:12PM 39.8235 -75.4600 60° Northeast 185 213 2,900 -600 Descending FlightAware ADS-B
02:12PM 39.8247 -75.4557 70° East 183 211 2,900 -540 Level FlightAware ADS-B
02:12PM 39.8263 -75.4480 75° East 182 209 2,800 -900 Descending FlightAware ADS-B
02:12PM 39.8286 -75.4351 77° East 184 212 2,600 -1,140 Descending FlightAware ADS-B
02:12PM 39.8321 -75.4183 75° East 183 211 2,300 -1,200 Descending FlightAware ADS-B